Largo, MD

2:31 PM EDT on July 04, 2015 (GMT -0400)
Cabin Branch Acres | | Change Station
CLOSE
Current Station
Personal Weather Station
Location: Upper Marlboro, MD
Elevation: 95 ft
Nearby Weather Stations

Elev 95 ft 38.85 °N, 76.80 °W | Updated 4 seconds ago

Overcast
Overcast
79.2 °F
Feels Like 83 °F
N
1.1
Wind Variable Wind from SE
Gusts 2.5 mph

Today
High -- | Low -- °F
--% Chance of Precip.
Yesterday
High -- | Low -- °F
Precip. -- in
5:46 AM 8:35 PM
Waning Gibbous, 91% visible
Pressure 29.93 in
Visibility 10.0 miles
Clouds Few 1900 ft
Scattered Clouds 3400 ft
Scattered Clouds 8000 ft
Mostly Cloudy 11000 ft
Mostly Cloudy 14000 ft
Mostly Cloudy 16000 ft
Heat Index 83 °F
Dew Point 72 °F
Humidity 80%
Rainfall 0.09 in
Snow Depth Not available.
UV 4.0 out of 12
Pollen .60 out of 12
Air Quality Not available.
Flu Activity Not available.
METAR KADW 041758Z AUTO VRB01KT 10SM FEW019 SCT034 SCT080 BKN110 BKN140 BKN160 25/23 A2991 RMK AO2 SLP133 60016 T02510230 10251 20206 55002 $

More Conditions Fewer Conditions

Pressure 29.93 in
Visibility 10.0 miles
Clouds Few 1900 ft
Scattered Clouds 3400 ft
Scattered Clouds 8000 ft
Mostly Cloudy 11000 ft
Mostly Cloudy 14000 ft
Mostly Cloudy 16000 ft
Heat Index 83 °F
Dew Point 72 °F
Humidity 80%
Rainfall 0.09 in
Snow Depth Not available.
UV 4.0 out of 12
Pollen .60 out of 12
Air Quality Not available.
Flu Activity Not available.
METAR KADW 041758Z AUTO VRB01KT 10SM FEW019 SCT034 SCT080 BKN110 BKN140 BKN160 25/23 A2991 RMK AO2 SLP133 60016 T02510230 10251 20206 55002 $

More Conditions Fewer Conditions

10-Day Weather Forecast

×

Almanac

Astronomy

Jul. 04, 2015 Rise Set
Actual Time
Civil Twilight
Nautical Twilight
Astronomical Twilight
Moon
Length of Visible Light
Length of Day
Tomorrow will be .
, % of the Moon is Illuminated

Today's Extremes

State Highs State Lows

Community

WunderPhotos

Upload Photos

1,835,034 photos uploaded!

WunderBlogs® & News

Nearby

Air Quality

  Air Quality AQ Index Pollutant
Not available.

Snow Depth

Station Depth Elevation

Earthquake Activity

City Distance Mag. Time & Date
Minimum magnitude displayed is 2.5.

Coastal Water Temperatures

Place Temperature

Stations

Nearby Weather Stations

Station Location Temp. Windchill Dew Point Humidity Wind Precip. Elev Updated Type